Time;durP1;ratioP1;P1;durP2;ratioP2;P2;SDS_P1;SDS_P2;PMS_P1;PMS_P2;Temp;Humidity;BMP_temperature;BMP_pressure;BME280_temperature;BME280_humidity;BME280_pressure;Samples;Min_cycle;Max_cycle;Signal;HPM_P1;HPM_P2
2022/03/06 00:00:47;;;;;;;13.90;10.57;;;;;;;;;;5049861;28;20237;-18
2022/03/06 00:03:14;;;;;;;18.90;10.40;;;;;;;;;;5050906;28;20241;-18
2022/03/06 00:05:41;;;;;;;17.55;10.70;;;;;;;;;;5049323;28;20442;-18
2022/03/06 00:08:08;;;;;;;20.90;10.77;;;;;;;;;;5040682;28;20231;-18
2022/03/06 00:10:35;;;;;;;16.52;10.48;;;;;;;;;;5044993;28;20732;-18
2022/03/06 00:13:02;;;;;;;14.95;10.38;;;;;;;;;;5039591;28;20309;-18
2022/03/06 00:15:29;;;;;;;12.43;9.38;;;;;;;;;;5039109;28;20238;-18
2022/03/06 00:17:56;;;;;;;17.25;9.73;;;;;;;;;;5042988;28;20223;-18
2022/03/06 00:20:24;;;;;;;19.60;10.10;;;;;;;;;;5041203;28;20442;-18
2022/03/06 00:22:51;;;;;;;30.52;10.27;;;;;;;;;;5037032;28;20243;-19
2022/03/06 00:25:18;;;;;;;29.80;10.82;;;;;;;;;;5036192;28;20234;-18
2022/03/06 00:27:44;;;;;;;30.15;10.30;;;;;;;;;;5042628;28;20975;-18
2022/03/06 00:30:11;;;;;;;25.02;9.90;;;;;;;;;;5040976;28;20242;-18
2022/03/06 00:32:39;;;;;;;20.35;9.48;;;;;;;;;;5045992;28;20320;-18
2022/03/06 00:35:06;;;;;;;17.13;9.75;;;;;;;;;;5043611;28;20230;-18
2022/03/06 00:37:33;;;;;;;17.67;8.95;;;;;;;;;;5047643;28;20237;-18
2022/03/06 00:40:00;;;;;;;17.17;9.30;;;;;;;;;;5043201;28;20226;-18
2022/03/06 00:42:27;;;;;;;17.98;9.45;;;;;;;;;;5045018;28;20237;-18
2022/03/06 00:44:54;;;;;;;16.45;8.68;;;;;;;;;;5053793;28;20238;-18
2022/03/06 00:47:21;;;;;;;18.05;9.35;;;;;;;;;;5053819;28;20229;-18
2022/03/06 00:49:48;;;;;;;12.52;8.70;;;;;;;;;;5049296;28;20702;-18
2022/03/06 00:52:15;;;;;;;16.75;9.15;;;;;;;;;;5034564;28;20749;-18
2022/03/06 00:54:42;;;;;;;14.05;8.50;;;;;;;;;;5034555;28;20230;-19
2022/03/06 00:57:09;;;;;;;13.45;8.15;;;;;;;;;;5034571;28;20268;-18
2022/03/06 00:59:36;;;;;;;11.95;8.00;;;;;;;;;;5058406;28;20232;-18
2022/03/06 01:02:03;;;;;;;18.00;8.88;;;;;;;;;;5057982;28;20843;-18
2022/03/06 01:04:30;;;;;;;14.27;8.27;;;;;;;;;;5054191;28;20244;-18
2022/03/06 01:06:57;;;;;;;10.45;8.23;;;;;;;;;;5053859;28;20234;-18
2022/03/06 01:09:24;;;;;;;13.05;8.90;;;;;;;;;;5051958;28;20230;-19
2022/03/06 01:11:51;;;;;;;11.43;8.40;;;;;;;;;;5053150;28;20230;-18
2022/03/06 01:14:18;;;;;;;14.80;7.95;;;;;;;;;;5050137;28;20230;-19
2022/03/06 01:16:45;;;;;;;11.32;8.05;;;;;;;;;;5066619;28;20236;-18
2022/03/06 01:19:12;;;;;;;10.55;7.95;;;;;;;;;;5061508;28;20696;-19
2022/03/06 01:21:39;;;;;;;8.95;7.30;;;;;;;;;;5062622;28;20693;-18
2022/03/06 01:24:06;;;;;;;11.57;7.85;;;;;;;;;;5053309;28;20324;-18
2022/03/06 01:26:33;;;;;;;16.10;7.55;;;;;;;;;;5053634;28;20232;-18
2022/03/06 01:29:00;;;;;;;12.82;8.15;;;;;;;;;;5051826;28;20291;-18
2022/03/06 01:31:27;;;;;;;12.13;7.53;;;;;;;;;;5053113;28;20226;-18
2022/03/06 01:33:54;;;;;;;9.05;7.10;;;;;;;;;;5053143;28;20590;-18
2022/03/06 01:36:21;;;;;;;10.35;7.53;;;;;;;;;;5050550;28;21637;-18
2022/03/06 01:38:48;;;;;;;9.77;7.40;;;;;;;;;;5033719;28;20234;-18
2022/03/06 01:41:15;;;;;;;10.10;7.32;;;;;;;;;;5032629;28;20231;-18
2022/03/06 01:43:42;;;;;;;9.02;7.53;;;;;;;;;;5033722;28;20244;-18
2022/03/06 01:46:09;;;;;;;9.98;7.22;;;;;;;;;;5053004;28;20226;-18
2022/03/06 01:48:36;;;;;;;10.48;7.60;;;;;;;;;;5053574;28;20321;-18
2022/03/06 01:51:03;;;;;;;10.10;7.50;;;;;;;;;;5053859;28;20232;-18
2022/03/06 01:53:30;;;;;;;10.63;7.32;;;;;;;;;;5050915;28;20774;-18
2022/03/06 01:55:57;;;;;;;10.90;7.30;;;;;;;;;;5053457;28;20780;-18
2022/03/06 01:58:24;;;;;;;9.15;6.68;;;;;;;;;;5053160;28;20230;-18
2022/03/06 02:00:51;;;;;;;10.65;7.07;;;;;;;;;;5047137;28;20236;-18
2022/03/06 02:03:18;;;;;;;8.57;6.88;;;;;;;;;;5053029;28;20234;-18
2022/03/06 02:05:45;;;;;;;8.68;6.45;;;;;;;;;;5053171;28;20292;-18
2022/03/06 02:08:12;;;;;;;7.80;6.60;;;;;;;;;;5044589;28;20331;-18
2022/03/06 02:10:39;;;;;;;9.13;6.45;;;;;;;;;;5033224;28;20718;-18
2022/03/06 02:13:06;;;;;;;8.93;6.25;;;;;;;;;;5033200;28;20231;-18
2022/03/06 02:15:33;;;;;;;10.68;6.53;;;;;;;;;;5052570;28;20984;-18
2022/03/06 02:18:00;;;;;;;8.73;6.20;;;;;;;;;;5052245;28;20233;-19
2022/03/06 02:20:27;;;;;;;7.53;5.68;;;;;;;;;;5033195;28;20727;-18
2022/03/06 02:22:54;;;;;;;7.40;5.88;;;;;;;;;;5031930;28;20252;-18
2022/03/06 02:25:21;;;;;;;6.95;5.95;;;;;;;;;;5042917;28;20238;-18
2022/03/06 02:27:48;;;;;;;10.15;6.22;;;;;;;;;;5052322;28;20244;-18
2022/03/06 02:30:15;;;;;;;10.75;6.32;;;;;;;;;;5052774;28;20223;-19
2022/03/06 02:32:42;;;;;;;10.82;5.72;;;;;;;;;;5052700;28;20222;-18
2022/03/06 02:35:09;;;;;;;6.75;5.78;;;;;;;;;;5051672;28;21021;-19
2022/03/06 02:37:36;;;;;;;7.32;5.55;;;;;;;;;;5052798;28;20237;-18
2022/03/06 02:40:03;;;;;;;7.28;6.07;;;;;;;;;;5052825;28;20708;-18
2022/03/06 02:42:30;;;;;;;9.70;6.28;;;;;;;;;;5052024;28;20226;-18
2022/03/06 02:44:58;;;;;;;8.50;5.80;;;;;;;;;;5052666;28;20285;-18
2022/03/06 02:47:25;;;;;;;7.22;5.70;;;;;;;;;;5051628;28;21066;-18
2022/03/06 02:49:52;;;;;;;7.40;5.93;;;;;;;;;;5050904;28;20233;-18
2022/03/06 02:52:19;;;;;;;10.15;5.80;;;;;;;;;;5051782;28;20233;-18
2022/03/06 02:54:46;;;;;;;6.93;6.00;;;;;;;;;;5052547;28;20226;-18
2022/03/06 02:57:13;;;;;;;9.70;5.90;;;;;;;;;;5051929;28;20238;-18
2022/03/06 02:59:40;;;;;;;8.15;5.82;;;;;;;;;;5049250;28;20222;-18
2022/03/06 03:02:07;;;;;;;6.90;5.80;;;;;;;;;;5052374;28;20987;-18
2022/03/06 03:04:36;;;;;;;7.13;5.38;;;;;;;;;;5052389;28;20242;-18
2022/03/06 03:07:03;;;;;;;6.90;5.45;;;;;;;;;;5051653;28;20233;-19
2022/03/06 03:09:31;;;;;;;7.43;5.43;;;;;;;;;;5032528;28;20234;-18
2022/03/06 03:11:58;;;;;;;8.65;5.68;;;;;;;;;;5031931;28;20721;-18
2022/03/06 03:14:25;;;;;;;8.95;5.40;;;;;;;;;;5032453;28;20230;-18
2022/03/06 03:16:52;;;;;;;9.10;6.30;;;;;;;;;;5046635;28;20238;-18
2022/03/06 03:19:19;;;;;;;6.63;5.20;;;;;;;;;;5051269;28;20253;-18
2022/03/06 03:21:46;;;;;;;6.90;5.40;;;;;;;;;;5048955;22;20250;-17
2022/03/06 03:24:13;;;;;;;6.70;5.47;;;;;;;;;;5032042;28;20239;-17
2022/03/06 03:26:40;;;;;;;5.97;5.07;;;;;;;;;;5019569;28;20235;-17
2022/03/06 03:29:07;;;;;;;8.55;5.20;;;;;;;;;;5012916;28;20230;-17
2022/03/06 03:31:34;;;;;;;6.57;5.13;;;;;;;;;;5031880;28;20230;-17
2022/03/06 03:34:01;;;;;;;8.50;5.60;;;;;;;;;;5032765;28;20223;-17
2022/03/06 03:36:28;;;;;;;6.15;5.55;;;;;;;;;;5031202;28;20238;-17
2022/03/06 03:38:55;;;;;;;6.18;5.30;;;;;;;;;;5024386;28;20282;-19
2022/03/06 03:41:25;;;;;;;6.68;5.43;;;;;;;;;;5027685;28;20230;-17
2022/03/06 03:43:52;;;;;;;7.97;5.65;;;;;;;;;;5049523;28;20237;-17
2022/03/06 03:46:19;;;;;;;8.25;5.60;;;;;;;;;;5037999;28;20241;-17
2022/03/06 03:48:46;;;;;;;9.23;5.93;;;;;;;;;;5029639;28;20230;-17
2022/03/06 03:51:13;;;;;;;6.47;5.32;;;;;;;;;;5028687;28;20358;-17
2022/03/06 03:53:40;;;;;;;6.03;4.90;;;;;;;;;;5030485;28;20732;-17
2022/03/06 03:56:07;;;;;;;7.00;5.88;;;;;;;;;;5030812;28;21100;-17
2022/03/06 03:58:34;;;;;;;6.93;5.60;;;;;;;;;;5030631;28;20227;-17
2022/03/06 04:01:01;;;;;;;6.88;5.70;;;;;;;;;;5030779;28;20231;-16
2022/03/06 04:03:28;;;;;;;7.28;5.28;;;;;;;;;;5040718;28;20237;-17
2022/03/06 04:05:55;;;;;;;6.10;5.10;;;;;;;;;;5053625;28;20246;-17
2022/03/06 04:08:22;;;;;;;7.35;5.53;;;;;;;;;;5054674;28;20249;-17
2022/03/06 04:10:49;;;;;;;6.20;5.22;;;;;;;;;;5042241;28;20222;-17
2022/03/06 04:13:16;;;;;;;7.10;5.30;;;;;;;;;;5034396;28;20230;-17
2022/03/06 04:15:45;;;;;;;6.10;4.95;;;;;;;;;;5049952;28;20250;-17
2022/03/06 04:18:12;;;;;;;5.47;4.85;;;;;;;;;;5032952;28;21016;-17
2022/03/06 04:20:39;;;;;;;8.13;5.35;;;;;;;;;;5038107;28;20252;-17
2022/03/06 04:23:06;;;;;;;6.05;4.95;;;;;;;;;;5054517;28;20233;-17
2022/03/06 04:25:34;;;;;;;6.13;5.22;;;;;;;;;;5051777;28;20252;-17
2022/03/06 04:28:01;;;;;;;6.50;5.45;;;;;;;;;;5054396;28;20723;-16
2022/03/06 04:30:28;;;;;;;6.82;5.18;;;;;;;;;;5036251;28;21056;-17
2022/03/06 04:32:55;;;;;;;6.53;5.32;;;;;;;;;;5034346;28;20937;-17
2022/03/06 04:35:22;;;;;;;5.57;5.00;;;;;;;;;;5033684;28;20234;-17
2022/03/06 04:37:49;;;;;;;6.00;5.18;;;;;;;;;;5034090;28;20246;-17
2022/03/06 04:40:16;;;;;;;6.63;5.70;;;;;;;;;;5034417;28;20233;-17
2022/03/06 04:42:43;;;;;;;5.97;5.15;;;;;;;;;;5032981;28;20226;-17
2022/03/06 04:45:10;;;;;;;6.45;5.38;;;;;;;;;;5042834;28;20245;-17
2022/03/06 04:47:37;;;;;;;6.53;5.13;;;;;;;;;;5033397;28;20713;-17
2022/03/06 04:50:04;;;;;;;7.70;5.30;;;;;;;;;;5033698;28;20710;-17
2022/03/06 04:52:31;;;;;;;5.53;5.03;;;;;;;;;;5038916;28;20230;-17
2022/03/06 04:54:58;;;;;;;8.75;4.72;;;;;;;;;;5053884;28;20222;-17
2022/03/06 04:57:25;;;;;;;7.00;5.10;;;;;;;;;;5050346;28;21797;-17
2022/03/06 04:59:52;;;;;;;6.28;4.93;;;;;;;;;;5034195;28;20230;-17
2022/03/06 05:02:19;;;;;;;7.22;5.63;;;;;;;;;;5034209;28;20261;-17
2022/03/06 05:04:46;;;;;;;5.93;4.97;;;;;;;;;;5034061;28;20274;-17
2022/03/06 05:07:13;;;;;;;7.30;5.75;;;;;;;;;;5033717;28;20318;-17
2022/03/06 05:09:40;;;;;;;6.15;5.50;;;;;;;;;;5039188;28;20284;-17
2022/03/06 05:12:08;;;;;;;6.68;5.38;;;;;;;;;;5032853;28;20239;-17
2022/03/06 05:14:35;;;;;;;5.32;4.80;;;;;;;;;;5033491;28;20239;-17
2022/03/06 05:17:02;;;;;;;7.60;5.25;;;;;;;;;;5033343;28;20333;-17
2022/03/06 05:19:29;;;;;;;7.63;5.22;;;;;;;;;;5038939;28;20690;-17
2022/03/06 05:21:56;;;;;;;7.88;5.00;;;;;;;;;;5048222;28;20245;-17
2022/03/06 05:24:23;;;;;;;6.32;5.10;;;;;;;;;;5052764;28;20234;-17
2022/03/06 05:26:50;;;;;;;5.38;4.88;;;;;;;;;;5053485;28;20226;-17
2022/03/06 05:29:17;;;;;;;7.50;5.60;;;;;;;;;;5053320;28;20226;-17
2022/03/06 05:31:44;;;;;;;6.55;5.90;;;;;;;;;;5049254;28;20230;-17
2022/03/06 05:34:12;;;;;;;6.25;5.00;;;;;;;;;;5053235;28;20229;-17
2022/03/06 05:36:38;;;;;;;6.15;4.97;;;;;;;;;;5053400;28;20222;-17
2022/03/06 05:39:05;;;;;;;7.47;4.97;;;;;;;;;;5052309;28;21057;-17
2022/03/06 05:41:32;;;;;;;6.15;5.05;;;;;;;;;;5052050;28;20945;-17
2022/03/06 05:43:59;;;;;;;5.40;4.70;;;;;;;;;;5053034;28;20234;-17
2022/03/06 05:46:26;;;;;;;5.32;4.82;;;;;;;;;;5041563;28;20242;-17
2022/03/06 05:48:54;;;;;;;6.38;4.68;;;;;;;;;;5052764;28;20317;-17
2022/03/06 05:51:21;;;;;;;7.75;4.22;;;;;;;;;;5053124;28;20242;-17
2022/03/06 05:53:48;;;;;;;6.72;4.88;;;;;;;;;;5025971;28;20235;-17
2022/03/06 05:56:15;;;;;;;5.47;4.80;;;;;;;;;;5046772;28;20226;-17
2022/03/06 05:58:42;;;;;;;7.15;4.55;;;;;;;;;;5052713;28;20312;-17
2022/03/06 06:01:09;;;;;;;6.35;4.63;;;;;;;;;;5044091;28;20235;-17
2022/03/06 06:03:37;;;;;;;5.78;4.50;;;;;;;;;;5039660;28;20239;-17
2022/03/06 06:06:03;;;;;;;5.50;4.70;;;;;;;;;;5032948;28;20301;-17
2022/03/06 06:08:31;;;;;;;7.40;5.13;;;;;;;;;;5032944;28;20233;-17
2022/03/06 06:10:58;;;;;;;5.75;4.47;;;;;;;;;;5041405;28;20309;-17
2022/03/06 06:13:25;;;;;;;5.03;4.53;;;;;;;;;;5052790;28;21092;-17
2022/03/06 06:15:51;;;;;;;5.20;4.53;;;;;;;;;;5037535;28;20231;-17
2022/03/06 06:18:19;;;;;;;4.85;4.30;;;;;;;;;;5027579;28;20237;-17
2022/03/06 06:20:46;;;;;;;5.60;4.75;;;;;;;;;;5023120;28;20245;-17
2022/03/06 06:23:12;;;;;;;5.35;4.30;;;;;;;;;;5029243;28;20231;-17
2022/03/06 06:25:39;;;;;;;5.15;4.30;;;;;;;;;;5031259;28;20709;-17
2022/03/06 06:28:06;;;;;;;5.97;5.07;;;;;;;;;;5020866;28;20706;-18
2022/03/06 06:30:33;;;;;;;4.50;4.10;;;;;;;;;;5024137;28;20237;-17
2022/03/06 06:33:00;;;;;;;5.22;4.72;;;;;;;;;;5021691;28;20235;-17
2022/03/06 06:35:27;;;;;;;4.45;3.92;;;;;;;;;;5023251;28;20223;-17
2022/03/06 06:37:54;;;;;;;5.00;4.22;;;;;;;;;;5023251;28;21062;-17
2022/03/06 06:40:21;;;;;;;5.20;4.22;;;;;;;;;;5021354;28;20710;-17
2022/03/06 06:42:48;;;;;;;4.80;4.18;;;;;;;;;;5021572;28;20721;-18
2022/03/06 06:45:15;;;;;;;4.53;4.00;;;;;;;;;;5013760;28;20726;-17
2022/03/06 06:47:42;;;;;;;4.25;3.85;;;;;;;;;;5036320;28;20647;-17
2022/03/06 06:50:09;;;;;;;5.47;4.47;;;;;;;;;;5050535;28;20240;-17
2022/03/06 06:52:36;;;;;;;4.18;3.78;;;;;;;;;;5051930;28;21052;-17
2022/03/06 06:55:03;;;;;;;5.47;4.47;;;;;;;;;;5052394;28;21058;-17
2022/03/06 06:57:30;;;;;;;7.40;4.60;;;;;;;;;;5043684;28;20231;-17
2022/03/06 06:59:57;;;;;;;7.43;4.07;;;;;;;;;;5025519;28;20237;-17
2022/03/06 07:02:24;;;;;;;4.65;3.83;;;;;;;;;;5030219;28;20261;-18
2022/03/06 07:04:56;;;;;;;8.90;3.67;;;;;;;;;;5027099;28;20226;-18
2022/03/06 07:07:24;;;;;;;6.43;4.10;;;;;;;;;;5023557;28;20237;-18
2022/03/06 07:09:51;;;;;;;7.20;3.95;;;;;;;;;;5025310;28;21030;-18
2022/03/06 07:12:18;;;;;;;5.97;4.25;;;;;;;;;;5032032;28;20237;-18
2022/03/06 07:14:45;;;;;;;5.25;3.92;;;;;;;;;;5024419;28;20232;-18
2022/03/06 07:17:11;;;;;;;4.72;3.90;;;;;;;;;;5028989;28;20229;-18
2022/03/06 07:19:38;;;;;;;6.32;3.88;;;;;;;;;;5028102;28;20231;-18
2022/03/06 07:22:05;;;;;;;10.45;4.28;;;;;;;;;;5042929;28;20252;-18
2022/03/06 07:24:32;;;;;;;5.22;3.92;;;;;;;;;;5032350;28;20235;-18
2022/03/06 07:26:59;;;;;;;5.55;4.03;;;;;;;;;;5015867;28;20242;-18
2022/03/06 07:29:26;;;;;;;5.00;3.65;;;;;;;;;;5031661;28;20279;-18
2022/03/06 07:31:53;;;;;;;4.15;3.42;;;;;;;;;;5036929;28;20234;-18
2022/03/06 07:34:20;;;;;;;4.50;3.78;;;;;;;;;;5033914;28;20887;-18
2022/03/06 07:36:47;;;;;;;4.90;3.47;;;;;;;;;;5032587;28;20237;-18
2022/03/06 07:39:15;;;;;;;4.38;3.63;;;;;;;;;;5030744;28;20666;-18
2022/03/06 07:41:42;;;;;;;5.38;3.60;;;;;;;;;;5031052;28;20600;-18
2022/03/06 07:44:09;;;;;;;4.63;3.03;;;;;;;;;;5035739;28;20261;-18
2022/03/06 07:46:36;;;;;;;4.30;3.72;;;;;;;;;;5038391;28;20234;-18
2022/03/06 07:49:03;;;;;;;7.45;3.92;;;;;;;;;;5030110;28;20234;-18
2022/03/06 07:51:30;;;;;;;3.60;3.00;;;;;;;;;;5032376;28;20242;-18
2022/03/06 07:53:57;;;;;;;4.10;3.70;;;;;;;;;;5043454;28;20219;-18
2022/03/06 07:56:24;;;;;;;6.43;3.90;;;;;;;;;;5031295;28;20230;-18
2022/03/06 07:58:53;;;;;;;5.60;3.55;;;;;;;;;;5031346;28;20227;-18
2022/03/06 08:01:20;;;;;;;4.90;3.35;;;;;;;;;;5032034;28;20239;-18
2022/03/06 08:03:47;;;;;;;3.63;3.10;;;;;;;;;;5031058;28;20231;-18
2022/03/06 08:06:14;;;;;;;4.90;3.08;;;;;;;;;;5029968;28;20242;-18
2022/03/06 08:08:42;;;;;;;5.75;4.30;;;;;;;;;;5030656;28;20231;-17
2022/03/06 08:11:09;;;;;;;3.40;3.03;;;;;;;;;;5019913;28;20309;-17
2022/03/06 08:13:36;;;;;;;4.53;3.15;;;;;;;;;;5013130;28;20254;-18
2022/03/06 08:16:03;;;;;;;6.50;3.55;;;;;;;;;;5022716;28;20230;-18
2022/03/06 08:18:30;;;;;;;5.18;3.30;;;;;;;;;;5031124;28;20266;-17
2022/03/06 08:20:57;;;;;;;4.55;3.30;;;;;;;;;;5014462;28;20263;-18
2022/03/06 08:23:24;;;;;;;4.82;3.28;;;;;;;;;;5025751;28;20713;-17
2022/03/06 08:25:51;;;;;;;4.13;3.10;;;;;;;;;;5050770;28;20241;-18
2022/03/06 08:28:18;;;;;;;5.65;3.25;;;;;;;;;;5049766;28;20735;-18
2022/03/06 08:30:45;;;;;;;4.57;3.15;;;;;;;;;;5034955;28;20242;-17
2022/03/06 08:33:12;;;;;;;6.00;3.10;;;;;;;;;;5015959;28;20231;-18
2022/03/06 08:35:40;;;;;;;3.50;2.75;;;;;;;;;;5013741;28;20238;-18
2022/03/06 08:38:07;;;;;;;3.65;2.85;;;;;;;;;;5022191;28;20235;-18
2022/03/06 08:40:34;;;;;;;4.28;2.95;;;;;;;;;;5023441;28;21048;-17
2022/03/06 08:43:01;;;;;;;3.38;2.95;;;;;;;;;;5011057;28;20246;-18
2022/03/06 08:45:28;;;;;;;8.23;3.25;;;;;;;;;;5013981;28;20236;-17
2022/03/06 08:47:55;;;;;;;8.35;3.13;;;;;;;;;;5046649;28;20237;-18
2022/03/06 08:50:22;;;;;;;5.60;2.97;;;;;;;;;;5031048;28;20699;-18
2022/03/06 08:52:49;;;;;;;7.18;3.25;;;;;;;;;;5027701;28;20282;-17
2022/03/06 08:55:16;;;;;;;6.50;3.40;;;;;;;;;;5035111;28;20235;-18
2022/03/06 08:57:43;;;;;;;6.65;3.17;;;;;;;;;;5052689;28;20427;-18
2022/03/06 09:00:14;;;;;;;6.97;3.25;;;;;;;;;;5051036;28;20605;-18
2022/03/06 09:02:41;;;;;;;5.25;3.10;;;;;;;;;;5033545;28;20227;-18
2022/03/06 09:05:08;;;;;;;6.97;2.90;;;;;;;;;;5032589;28;20230;-18
2022/03/06 09:07:35;;;;;;;8.35;3.40;;;;;;;;;;5033871;28;20242;-18
2022/03/06 09:10:03;;;;;;;17.88;3.47;;;;;;;;;;5032223;28;20237;-18
2022/03/06 09:12:37;;;;;;;15.50;3.33;;;;;;;;;;5033053;28;20242;-17
2022/03/06 09:15:04;;;;;;;15.52;3.10;;;;;;;;;;5033521;28;20227;-17
2022/03/06 09:17:31;;;;;;;13.65;3.28;;;;;;;;;;5033727;28;20238;-17
2022/03/06 09:19:58;;;;;;;7.75;2.90;;;;;;;;;;5026727;28;20326;-17
2022/03/06 09:22:24;;;;;;;11.00;3.35;;;;;;;;;;5029505;28;21011;-18
2022/03/06 09:24:51;;;;;;;5.57;2.40;;;;;;;;;;5031307;28;20230;-17
2022/03/06 09:27:19;;;;;;;4.75;3.05;;;;;;;;;;5037392;28;20242;-17
2022/03/06 09:29:46;;;;;;;7.30;3.22;;;;;;;;;;5053372;28;20230;-18
2022/03/06 09:32:14;;;;;;;9.05;3.00;;;;;;;;;;5034626;28;20231;-18
2022/03/06 09:34:41;;;;;;;9.40;2.80;;;;;;;;;;5033154;28;20234;-17
2022/03/06 09:37:08;;;;;;;7.55;3.53;;;;;;;;;;5024665;28;20273;-18
2022/03/06 09:39:35;;;;;;;4.85;2.90;;;;;;;;;;5024112;28;20617;-17
2022/03/06 09:42:01;;;;;;;9.40;2.97;;;;;;;;;;5025799;28;20769;-17
2022/03/06 09:44:30;;;;;;;3.72;2.50;;;;;;;;;;5025119;28;20260;-17
2022/03/06 09:46:57;;;;;;;10.68;3.00;;;;;;;;;;5024241;28;20335;-17
2022/03/06 09:49:25;;;;;;;4.03;2.35;;;;;;;;;;5033550;28;20245;-18
2022/03/06 09:51:54;;;;;;;5.40;2.50;;;;;;;;;;5033306;28;20912;-18
2022/03/06 09:54:21;;;;;;;6.43;2.50;;;;;;;;;;5030831;28;20799;-18
2022/03/06 09:56:48;;;;;;;3.58;2.20;;;;;;;;;;5025554;28;20231;-18
2022/03/06 09:59:15;;;;;;;5.32;2.80;;;;;;;;;;5020187;28;20455;-17
2022/03/06 10:01:42;;;;;;;6.13;2.63;;;;;;;;;;5026942;28;20231;-17
2022/03/06 10:04:09;;;;;;;6.18;2.30;;;;;;;;;;5033842;28;20227;-17
2022/03/06 10:06:36;;;;;;;9.07;2.30;;;;;;;;;;5046187;28;20245;-17
2022/03/06 10:09:04;;;;;;;8.05;2.20;;;;;;;;;;5052353;28;20226;-17
2022/03/06 10:11:31;;;;;;;5.78;2.17;;;;;;;;;;5052592;28;20218;-17
2022/03/06 10:13:58;;;;;;;6.53;2.85;;;;;;;;;;5052031;28;20230;-17
2022/03/06 10:16:25;;;;;;;4.88;2.08;;;;;;;;;;5040511;28;20273;-17
2022/03/06 10:18:52;;;;;;;8.50;2.30;;;;;;;;;;5032698;28;21242;-17
2022/03/06 10:21:20;;;;;;;4.82;2.40;;;;;;;;;;5031201;28;20963;-17
2022/03/06 10:23:47;;;;;;;8.73;2.45;;;;;;;;;;5032355;28;20998;-16
2022/03/06 10:26:14;;;;;;;7.18;2.15;;;;;;;;;;5026385;28;20980;-17
2022/03/06 10:28:41;;;;;;;5.90;2.28;;;;;;;;;;5032173;28;20341;-17
2022/03/06 10:31:08;;;;;;;14.07;2.42;;;;;;;;;;5032549;28;20258;-17
2022/03/06 10:33:35;;;;;;;4.00;2.10;;;;;;;;;;5031507;28;20237;-16
2022/03/06 10:36:02;;;;;;;6.50;2.13;;;;;;;;;;5033317;28;20681;-16
2022/03/06 10:38:29;;;;;;;8.35;2.70;;;;;;;;;;5032557;28;21082;-16
2022/03/06 10:40:56;;;;;;;11.63;3.05;;;;;;;;;;5033205;28;20241;-17
2022/03/06 10:43:23;;;;;;;6.32;2.20;;;;;;;;;;5033802;28;20231;-16
2022/03/06 10:45:50;;;;;;;12.40;2.38;;;;;;;;;;5032985;28;20242;-16
2022/03/06 10:48:17;;;;;;;8.00;2.47;;;;;;;;;;5050667;28;20264;-16
2022/03/06 10:50:44;;;;;;;6.47;2.38;;;;;;;;;;5039805;28;20242;-16
2022/03/06 10:53:11;;;;;;;5.43;2.55;;;;;;;;;;5033635;28;20250;-16
2022/03/06 10:55:38;;;;;;;6.13;2.20;;;;;;;;;;5046783;28;20247;-16
2022/03/06 10:58:05;;;;;;;10.27;2.50;;;;;;;;;;5051603;28;20246;-16
2022/03/06 11:00:33;;;;;;;9.30;2.40;;;;;;;;;;5047436;28;20397;-16
2022/03/06 11:03:00;;;;;;;4.85;2.15;;;;;;;;;;5032244;28;20334;-16
2022/03/06 11:05:27;;;;;;;7.28;2.33;;;;;;;;;;5031570;28;20222;-16
2022/03/06 11:07:54;;;;;;;7.00;2.60;;;;;;;;;;5022314;28;20246;-16
2022/03/06 11:10:21;;;;;;;5.68;2.28;;;;;;;;;;5028939;28;20214;-16
2022/03/06 11:12:48;;;;;;;5.47;2.13;;;;;;;;;;5037053;28;20231;-16
2022/03/06 11:15:15;;;;;;;5.38;2.40;;;;;;;;;;5031964;28;20229;-16
2022/03/06 11:17:42;;;;;;;8.20;2.40;;;;;;;;;;5031659;28;20240;-16
2022/03/06 11:20:09;;;;;;;7.13;2.60;;;;;;;;;;5031295;28;20230;-16
2022/03/06 11:22:36;;;;;;;3.70;2.30;;;;;;;;;;5024811;28;20243;-16
2022/03/06 11:25:07;;;;;;;4.00;2.38;;;;;;;;;;5023453;28;20230;-16
2022/03/06 11:27:34;;;;;;;3.88;2.63;;;;;;;;;;5024142;28;21219;-16
2022/03/06 11:30:01;;;;;;;5.68;2.30;;;;;;;;;;5020480;28;20235;-16
2022/03/06 11:32:28;;;;;;;6.03;2.40;;;;;;;;;;5031744;28;20226;-16
2022/03/06 11:34:55;;;;;;;5.88;2.38;;;;;;;;;;5023308;28;20235;-16
2022/03/06 11:37:24;;;;;;;12.02;2.90;;;;;;;;;;5011169;28;20422;-16
2022/03/06 11:39:51;;;;;;;5.93;2.03;;;;;;;;;;5011925;28;20223;-16
2022/03/06 11:42:18;;;;;;;9.68;2.33;;;;;;;;;;5038208;28;20230;-17
2022/03/06 11:44:45;;;;;;;6.32;2.30;;;;;;;;;;5045093;28;20265;-16
2022/03/06 11:47:12;;;;;;;5.68;2.38;;;;;;;;;;5031030;28;21140;-16
2022/03/06 11:49:39;;;;;;;5.65;2.30;;;;;;;;;;5040365;28;20237;-16
2022/03/06 11:52:06;;;;;;;9.18;2.83;;;;;;;;;;5042692;28;20235;-16
2022/03/06 11:54:33;;;;;;;7.40;2.10;;;;;;;;;;5020443;28;20235;-16
2022/03/06 11:57:00;;;;;;;3.78;1.98;;;;;;;;;;5030026;28;20394;-16
2022/03/06 11:59:27;;;;;;;6.53;2.40;;;;;;;;;;5021389;28;20426;-16
2022/03/06 12:01:54;;;;;;;12.98;3.15;;;;;;;;;;5022102;28;20231;-16
2022/03/06 12:04:21;;;;;;;8.85;3.08;;;;;;;;;;5023007;28;20241;-16
2022/03/06 12:06:49;;;;;;;11.75;2.70;;;;;;;;;;5023416;28;20539;-16
2022/03/06 12:09:16;;;;;;;6.85;2.83;;;;;;;;;;5031669;28;20233;-16
2022/03/06 12:11:43;;;;;;;9.85;2.58;;;;;;;;;;5030370;28;20219;-15
2022/03/06 12:14:10;;;;;;;6.80;2.55;;;;;;;;;;5032781;28;20778;-17
2022/03/06 12:16:36;;;;;;;7.63;2.63;;;;;;;;;;5031305;28;20239;-16
2022/03/06 12:19:04;;;;;;;8.90;2.53;;;;;;;;;;5030485;28;20233;-16
2022/03/06 12:21:30;;;;;;;7.40;2.30;;;;;;;;;;5044938;28;20241;-16
2022/03/06 12:23:57;;;;;;;8.07;2.10;;;;;;;;;;5050876;28;20233;-16
2022/03/06 12:26:24;;;;;;;5.57;2.20;;;;;;;;;;5052889;28;20233;-16
2022/03/06 12:28:55;;;;;;;7.70;2.03;;;;;;;;;;5046375;28;20237;-16
2022/03/06 12:31:22;;;;;;;6.32;2.30;;;;;;;;;;5034555;28;20227;-16
2022/03/06 12:33:49;;;;;;;2.95;2.13;;;;;;;;;;5034324;28;20945;-16
2022/03/06 12:36:16;;;;;;;3.70;2.30;;;;;;;;;;5041407;28;20261;-16
2022/03/06 12:38:43;;;;;;;5.32;2.40;;;;;;;;;;5054693;28;20218;-16
2022/03/06 12:41:10;;;;;;;2.70;1.90;;;;;;;;;;5036549;28;20241;-16
2022/03/06 12:43:37;;;;;;;3.05;2.53;;;;;;;;;;5036895;28;21095;-16
2022/03/06 12:46:04;;;;;;;3.22;2.08;;;;;;;;;;5044483;28;20238;-16
2022/03/06 12:48:31;;;;;;;4.43;2.40;;;;;;;;;;5034203;28;20230;-16
2022/03/06 12:50:58;;;;;;;5.70;2.25;;;;;;;;;;5033679;28;20317;-16
2022/03/06 12:53:25;;;;;;;3.50;2.40;;;;;;;;;;5054324;28;20227;-16
2022/03/06 12:55:52;;;;;;;4.38;2.25;;;;;;;;;;5054399;28;20214;-16
2022/03/06 12:58:19;;;;;;;4.80;2.38;;;;;;;;;;5053888;28;20229;-16
2022/03/06 13:00:46;;;;;;;4.82;1.92;;;;;;;;;;5035874;28;20231;-16
2022/03/06 13:03:15;;;;;;;2.47;2.28;;;;;;;;;;5050425;28;20241;-16
2022/03/06 13:05:43;;;;;;;2.50;2.13;;;;;;;;;;5053831;28;20230;-16
2022/03/06 13:08:10;;;;;;;3.40;2.38;;;;;;;;;;5051893;28;20241;-16
2022/03/06 13:10:36;;;;;;;4.57;2.10;;;;;;;;;;5053556;28;20229;-16
2022/03/06 13:13:03;;;;;;;3.95;2.00;;;;;;;;;;5052413;28;20237;-16
2022/03/06 13:15:31;;;;;;;2.47;1.75;;;;;;;;;;5052813;28;20269;-16
2022/03/06 13:17:58;;;;;;;2.75;1.90;;;;;;;;;;5053810;28;20224;-16
2022/03/06 13:20:25;;;;;;;6.18;1.90;;;;;;;;;;5053687;28;20230;-15
2022/03/06 13:22:52;;;;;;;3.53;2.00;;;;;;;;;;5052386;28;20234;-16
2022/03/06 13:25:19;;;;;;;3.75;1.52;;;;;;;;;;5031969;28;20238;-16
2022/03/06 13:27:46;;;;;;;2.60;1.75;;;;;;;;;;5033546;28;20234;-16
2022/03/06 13:30:14;;;;;;;3.22;2.00;;;;;;;;;;5033606;28;20227;-16
2022/03/06 13:32:41;;;;;;;2.50;1.95;;;;;;;;;;5050299;28;20234;-16
2022/03/06 13:35:08;;;;;;;4.70;1.90;;;;;;;;;;5043752;28;20739;-16
2022/03/06 13:37:35;;;;;;;2.05;1.65;;;;;;;;;;5032156;28;20736;-16
2022/03/06 13:40:02;;;;;;;2.60;2.10;;;;;;;;;;5045995;28;21012;-16
2022/03/06 13:42:29;;;;;;;3.03;1.90;;;;;;;;;;5053340;28;20959;-16
2022/03/06 13:44:56;;;;;;;2.10;1.90;;;;;;;;;;5053266;28;20226;-16
2022/03/06 13:47:24;;;;;;;3.55;1.77;;;;;;;;;;5050707;28;20234;-16
2022/03/06 13:49:51;;;;;;;3.20;1.98;;;;;;;;;;5052824;28;20331;-16
2022/03/06 13:52:18;;;;;;;3.15;1.63;;;;;;;;;;5051493;28;20232;-16
2022/03/06 13:54:45;;;;;;;3.78;1.90;;;;;;;;;;5052250;28;20246;-16
2022/03/06 13:57:12;;;;;;;2.08;1.75;;;;;;;;;;5043253;28;20227;-16
2022/03/06 13:59:39;;;;;;;2.13;1.55;;;;;;;;;;5033219;28;20250;-16
2022/03/06 14:02:06;;;;;;;3.03;1.75;;;;;;;;;;5033639;28;20231;-16
2022/03/06 14:04:33;;;;;;;2.35;1.70;;;;;;;;;;5053039;28;20230;-16
2022/03/06 14:07:00;;;;;;;2.05;1.50;;;;;;;;;;5052583;28;20228;-16
2022/03/06 14:09:32;;;;;;;3.50;1.80;;;;;;;;;;5050739;28;20724;-16
2022/03/06 14:11:59;;;;;;;2.75;2.13;;;;;;;;;;5030420;28;20241;-16
2022/03/06 14:14:26;;;;;;;2.17;1.70;;;;;;;;;;5031762;28;20235;-16
2022/03/06 14:16:53;;;;;;;2.10;1.73;;;;;;;;;;5034467;28;20230;-16
2022/03/06 14:19:20;;;;;;;2.92;1.80;;;;;;;;;;5031581;28;20235;-16
2022/03/06 14:21:47;;;;;;;1.98;1.73;;;;;;;;;;5046107;28;20274;-17
2022/03/06 14:24:14;;;;;;;2.33;1.85;;;;;;;;;;5031876;28;20239;-16
2022/03/06 14:26:41;;;;;;;6.72;1.83;;;;;;;;;;5031629;28;20374;-16
2022/03/06 14:29:09;;;;;;;3.45;1.50;;;;;;;;;;5030646;28;21588;-16
2022/03/06 14:31:47;;;;;;;2.40;1.77;;;;;;;;;;5031217;28;21115;-16
2022/03/06 14:34:14;;;;;;;6.50;1.83;;;;;;;;;;5029722;28;20278;-16
2022/03/06 14:36:41;;;;;;;3.80;1.52;;;;;;;;;;5024375;28;20815;-16
2022/03/06 14:39:08;;;;;;;2.40;1.40;;;;;;;;;;5026990;28;20234;-16